Time;durP1;ratioP1;P1;durP2;ratioP2;P2;SDS_P1;SDS_P2;PMS_P1;PMS_P2;Temp;Humidity;BMP_temperature;BMP_pressure;BME280_temperature;BME280_humidity;BME280_pressure;Samples;Min_cycle;Max_cycle;Signal;HPM_P1;HPM_P2
2021/08/05 00:02:08;;;;;;;3.40;1.55;;;18.70;81.50;;;;;;4825176;29;20213;-81
2021/08/05 00:04:34;;;;;;;3.08;1.60;;;18.70;81.50;;;;;;4825238;29;20107;-81
2021/08/05 00:07:03;;;;;;;1.85;1.15;;;18.70;81.70;;;;;;4842907;29;20050;-82
2021/08/05 00:09:29;;;;;;;3.55;1.63;;;18.70;81.40;;;;;;4843607;29;20133;-83
2021/08/05 00:11:54;;;;;;;2.75;1.38;;;18.60;81.50;;;;;;4843543;29;20430;-82
2021/08/05 00:14:20;;;;;;;2.90;1.52;;;18.60;81.20;;;;;;4842698;29;20046;-82
2021/08/05 00:16:45;;;;;;;3.35;1.60;;;18.50;81.30;;;;;;4843573;29;20062;-82
2021/08/05 00:19:11;;;;;;;4.25;1.70;;;18.50;81.40;;;;;;4843144;29;20049;-81
2021/08/05 00:21:37;;;;;;;3.42;1.52;;;18.50;81.50;;;;;;4842395;29;20488;-82
2021/08/05 00:24:02;;;;;;;3.78;1.63;;;18.40;81.20;;;;;;4842997;29;20400;-82
2021/08/05 00:26:28;;;;;;;2.65;1.40;;;18.40;81.60;;;;;;4843156;29;20114;-81
2021/08/05 00:28:54;;;;;;;3.00;1.40;;;18.40;81.70;;;;;;4842691;29;20049;-82
2021/08/05 00:31:20;;;;;;;3.60;1.55;;;18.30;81.50;;;;;;4843408;29;20145;-82
2021/08/05 00:33:46;;;;;;;3.22;1.58;;;18.30;81.80;;;;;;4843405;29;20125;-81
2021/08/05 00:36:12;;;;;;;3.85;1.50;;;18.30;81.90;;;;;;4829191;29;20492;-81
2021/08/05 00:38:38;;;;;;;2.55;1.30;;;18.30;81.90;;;;;;4824890;29;20065;-81
2021/08/05 00:41:03;;;;;;;4.15;1.50;;;18.30;82.00;;;;;;4824442;29;20415;-82
2021/08/05 00:43:29;;;;;;;3.17;1.50;;;18.20;82.10;;;;;;4824891;29;20416;-81
2021/08/05 00:45:55;;;;;;;3.42;1.63;;;18.20;82.30;;;;;;4824582;29;20502;-81
2021/08/05 00:48:21;;;;;;;3.33;1.38;;;18.20;82.20;;;;;;4823528;29;20730;-82
2021/08/05 00:50:49;;;;;;;3.53;1.63;;;18.10;82.30;;;;;;4824906;29;20133;-81
2021/08/05 00:53:16;;;;;;;3.45;1.58;;;18.10;82.30;;;;;;4824646;29;20065;-81
2021/08/05 00:55:42;;;;;;;3.92;1.40;;;18.00;82.40;;;;;;4828730;29;20050;-82
2021/08/05 00:58:08;;;;;;;3.28;1.58;;;18.00;82.70;;;;;;4842949;29;20054;-82
2021/08/05 01:00:35;;;;;;;3.20;1.70;;;18.00;82.80;;;;;;4842857;29;20414;-81
2021/08/05 01:03:09;;;;;;;2.72;1.40;;;18.00;82.60;;;;;;4841696;29;20154;-81
2021/08/05 01:05:40;;;;;;;3.92;1.50;;;17.90;82.70;;;;;;4834366;29;20050;-81
2021/08/05 01:08:08;;;;;;;3.75;1.48;;;17.90;83.00;;;;;;4824108;29;20061;-81
2021/08/05 01:10:45;;;;;;;2.83;1.60;;;17.80;83.20;;;;;;4823953;29;20453;-81
2021/08/05 01:13:28;;;;;;;3.50;1.70;;;17.80;83.20;;;;;;4824550;29;20062;-81
2021/08/05 01:15:55;;;;;;;3.60;1.70;;;17.80;83.70;;;;;;4833825;29;20053;-81
2021/08/05 01:18:30;;;;;;;4.47;1.80;;;17.70;83.60;;;;;;4841368;29;20133;-81
2021/08/05 01:21:00;;;;;;;3.38;1.50;;;17.70;83.30;;;;;;4842335;29;20054;-81
2021/08/05 01:23:42;;;;;;;2.65;1.40;;;17.70;83.80;;;;;;4841781;29;20061;-81
2021/08/05 01:26:12;;;;;;;4.32;1.80;;;17.70;83.00;;;;;;4842183;29;20480;-81
2021/08/05 01:28:43;;;;;;;4.00;1.88;;;17.60;83.90;;;;;;4842389;29;20065;-81
2021/08/05 01:31:09;;;;;;;3.75;1.50;;;17.60;84.00;;;;;;4841317;29;20050;-81
2021/08/05 01:33:36;;;;;;;3.63;1.77;;;17.60;83.90;;;;;;4841658;29;20118;-81
2021/08/05 01:36:03;;;;;;;3.25;1.77;;;17.60;83.80;;;;;;4835583;29;20062;-81
2021/08/05 01:38:32;;;;;;;4.75;1.88;;;17.50;84.20;;;;;;4822983;29;20420;-81
2021/08/05 01:40:59;;;;;;;3.10;1.80;;;17.50;84.20;;;;;;4823888;29;20051;-82
2021/08/05 01:43:26;;;;;;;4.22;1.90;;;17.50;84.10;;;;;;4823974;29;20357;-81
2021/08/05 01:45:53;;;;;;;4.10;1.70;;;17.50;84.10;;;;;;4831133;29;20058;-81
2021/08/05 01:48:19;;;;;;;3.67;1.70;;;17.40;84.00;;;;;;4842207;29;20075;-81
2021/08/05 01:50:46;;;;;;;4.07;1.58;;;17.40;83.90;;;;;;4842333;29;20066;-81
2021/08/05 01:53:15;;;;;;;3.28;1.65;;;17.30;84.10;;;;;;4841064;29;20046;-81
2021/08/05 01:55:42;;;;;;;3.38;1.80;;;17.30;84.20;;;;;;4841981;29;20083;-81
2021/08/05 01:58:08;;;;;;;3.70;1.67;;;17.30;84.40;;;;;;4843374;29;20065;-82
2021/08/05 02:00:34;;;;;;;3.60;1.60;;;17.30;84.50;;;;;;4840028;29;20495;-81
2021/08/05 02:03:01;;;;;;;3.30;1.77;;;17.20;84.50;;;;;;4830079;29;20058;-81
2021/08/05 02:05:41;;;;;;;3.03;1.60;;;17.20;84.60;;;;;;4834547;29;20546;-81
2021/08/05 02:08:14;;;;;;;3.63;1.70;;;17.10;84.40;;;;;;4845694;29;20061;-81
2021/08/05 02:10:42;;;;;;;4.22;1.85;;;17.10;84.40;;;;;;4845886;29;20133;-81
2021/08/05 02:13:20;;;;;;;3.38;1.83;;;17.00;84.70;;;;;;4845010;29;20053;-81
2021/08/05 02:16:02;;;;;;;3.33;1.60;;;17.00;84.70;;;;;;4845775;29;20122;-81
2021/08/05 02:18:34;;;;;;;3.28;1.67;;;17.00;83.70;;;;;;4845293;29;20476;-81
2021/08/05 02:21:01;;;;;;;3.17;1.80;;;16.90;84.80;;;;;;4844473;29;20073;-81
2021/08/05 02:23:28;;;;;;;4.22;1.92;;;16.90;85.10;;;;;;4845872;29;20458;-81
2021/08/05 02:25:54;;;;;;;3.65;1.63;;;16.90;85.10;;;;;;4836135;29;20111;-81
2021/08/05 02:28:23;;;;;;;4.10;1.73;;;16.80;85.30;;;;;;4825858;29;20540;-81
2021/08/05 02:30:51;;;;;;;4.03;1.90;;;16.80;85.70;;;;;;4827012;29;20678;-82
2021/08/05 02:33:18;;;;;;;3.67;1.80;;;16.80;85.70;;;;;;4826784;29;20459;-81
2021/08/05 02:35:45;;;;;;;3.55;1.70;;;16.80;85.30;;;;;;4842617;29;20081;-81
2021/08/05 02:38:12;;;;;;;4.22;2.00;;;16.70;85.40;;;;;;4844684;29;20145;-82
2021/08/05 02:40:39;;;;;;;3.80;1.85;;;16.70;85.90;;;;;;4844157;29;20054;-81
2021/08/05 02:43:09;;;;;;;4.13;1.85;;;16.70;85.50;;;;;;4844905;29;20060;-81
2021/08/05 02:45:36;;;;;;;4.13;2.13;;;16.70;85.20;;;;;;4844954;29;20107;-81
2021/08/05 02:48:04;;;;;;;4.50;2.20;;;16.70;85.90;;;;;;4844017;29;20417;-82
2021/08/05 02:50:31;;;;;;;4.47;2.10;;;16.70;86.20;;;;;;4832382;29;20055;-81
2021/08/05 02:52:58;;;;;;;5.00;2.30;;;16.60;86.30;;;;;;4826161;29;20556;-82
2021/08/05 02:55:25;;;;;;;3.90;2.10;;;16.60;86.40;;;;;;4825751;29;20165;-81
2021/08/05 02:57:55;;;;;;;3.78;2.10;;;16.60;86.10;;;;;;4826529;29;20412;-82
2021/08/05 03:00:22;;;;;;;3.72;2.15;;;16.60;87.10;;;;;;4826167;29;20065;-81
2021/08/05 03:02:49;;;;;;;3.95;2.20;;;16.50;86.40;;;;;;4825884;29;20082;-82
2021/08/05 03:05:16;;;;;;;4.43;2.47;;;16.50;86.20;;;;;;4826245;29;20054;-81
2021/08/05 03:07:43;;;;;;;4.68;2.20;;;16.50;86.50;;;;;;4826629;29;20133;-82
2021/08/05 03:10:10;;;;;;;3.58;2.00;;;16.40;86.60;;;;;;4823769;29;20054;-81
2021/08/05 03:12:36;;;;;;;4.70;2.60;;;16.50;86.60;;;;;;4826484;29;20082;-82
2021/08/05 03:15:02;;;;;;;4.25;2.30;;;16.40;86.70;;;;;;4825837;29;20074;-82
2021/08/05 03:17:27;;;;;;;5.32;2.50;;;16.40;86.30;;;;;;4825540;29;20403;-83
2021/08/05 03:19:53;;;;;;;4.70;2.42;;;16.40;86.20;;;;;;4833711;29;20148;-83
2021/08/05 03:22:19;;;;;;;5.10;2.63;;;16.40;86.40;;;;;;4844324;29;20061;-83
2021/08/05 03:24:44;;;;;;;4.97;2.60;;;16.30;86.30;;;;;;4843820;29;20046;-82
2021/08/05 03:27:11;;;;;;;5.75;2.80;;;16.30;86.40;;;;;;4844386;29;20057;-81
2021/08/05 03:29:37;;;;;;;5.05;2.85;;;16.30;86.60;;;;;;4844102;29;20586;-82
2021/08/05 03:32:03;;;;;;;4.75;2.80;;;16.20;86.60;;;;;;4843129;29;20140;-81
2021/08/05 03:34:29;;;;;;;5.57;2.80;;;16.30;86.70;;;;;;4844313;29;20109;-82
2021/08/05 03:36:55;;;;;;;4.78;2.97;;;16.20;86.50;;;;;;4843532;29;20507;-82
2021/08/05 03:39:20;;;;;;;6.55;3.08;;;16.20;86.50;;;;;;4840704;29;20066;-83
2021/08/05 03:41:47;;;;;;;5.30;3.00;;;16.20;86.80;;;;;;4826019;29;20110;-82
2021/08/05 03:44:13;;;;;;;4.82;2.97;;;16.20;86.90;;;;;;4824749;29;20534;-81
2021/08/05 03:46:39;;;;;;;6.72;3.17;;;16.20;86.00;;;;;;4825983;29;20061;-81
2021/08/05 03:49:05;;;;;;;5.32;3.30;;;16.20;86.10;;;;;;4825775;29;20052;-81
2021/08/05 03:51:31;;;;;;;5.50;3.50;;;16.10;86.20;;;;;;4825032;29;20073;-81
2021/08/05 03:53:56;;;;;;;6.82;3.42;;;16.10;86.80;;;;;;4825478;29;20140;-81
2021/08/05 03:56:22;;;;;;;6.03;3.35;;;16.10;86.90;;;;;;4825269;29;20070;-81
2021/08/05 03:58:47;;;;;;;5.55;3.38;;;16.10;86.90;;;;;;4824909;29;20515;-82
2021/08/05 04:01:14;;;;;;;6.13;3.47;;;16.10;86.60;;;;;;4825388;29;20403;-81
2021/08/05 04:03:39;;;;;;;5.95;3.75;;;16.10;87.10;;;;;;4825598;29;20046;-81
2021/08/05 04:06:05;;;;;;;6.18;3.58;;;16.10;87.20;;;;;;4824556;29;20054;-81
2021/08/05 04:08:30;;;;;;;5.32;3.58;;;16.00;87.20;;;;;;4828701;29;20148;-81
2021/08/05 04:10:56;;;;;;;6.10;3.47;;;16.00;87.40;;;;;;4843252;29;20049;-81
2021/08/05 04:13:22;;;;;;;5.80;3.70;;;16.00;86.80;;;;;;4842444;29;20080;-81
2021/08/05 04:15:48;;;;;;;6.57;4.25;;;16.00;86.70;;;;;;4843095;29;20061;-81
2021/08/05 04:18:13;;;;;;;6.22;3.33;;;16.00;86.90;;;;;;4843381;29;20064;-81
2021/08/05 04:20:40;;;;;;;6.65;4.20;;;16.00;87.10;;;;;;4842332;29;20050;-81
2021/08/05 04:23:06;;;;;;;6.13;3.72;;;16.00;87.40;;;;;;4842750;29;20058;-82
2021/08/05 04:25:31;;;;;;;5.43;3.70;;;16.00;87.50;;;;;;4843463;29;20455;-81
2021/08/05 04:27:57;;;;;;;6.30;3.90;;;16.00;87.60;;;;;;4842553;29;20518;-81
2021/08/05 04:30:25;;;;;;;6.40;4.32;;;16.00;87.70;;;;;;4843528;29;20510;-82
2021/08/05 04:32:51;;;;;;;5.75;3.58;;;16.00;87.70;;;;;;4843287;29;20495;-82
2021/08/05 04:35:17;;;;;;;6.60;3.95;;;16.00;87.10;;;;;;4832597;29;20163;-81
2021/08/05 04:37:51;;;;;;;5.85;4.13;;;15.90;87.10;;;;;;4823226;29;20138;-81
2021/08/05 04:40:17;;;;;;;6.13;4.00;;;15.90;86.80;;;;;;4824053;29;20133;-81
2021/08/05 04:42:43;;;;;;;6.03;3.75;;;16.00;86.80;;;;;;4824662;29;20221;-81
2021/08/05 04:45:10;;;;;;;7.03;4.60;;;15.90;87.00;;;;;;4824831;29;20095;-81
2021/08/05 04:47:54;;;;;;;5.95;4.07;;;15.90;87.30;;;;;;4824199;29;20102;-81
2021/08/05 04:50:21;;;;;;;7.18;4.70;;;15.90;86.70;;;;;;4824678;29;20055;-81
2021/08/05 04:52:47;;;;;;;6.40;4.43;;;15.90;86.80;;;;;;4824775;29;20052;-81
2021/08/05 04:55:13;;;;;;;6.80;4.60;;;15.90;86.80;;;;;;4823564;29;20416;-81
2021/08/05 04:57:50;;;;;;;9.32;4.32;;;15.90;87.00;;;;;;4824965;29;20075;-83
2021/08/05 05:00:21;;;;;;;6.40;4.40;;;15.90;86.80;;;;;;4826504;29;20050;-83
2021/08/05 05:02:47;;;;;;;7.20;4.43;;;15.90;87.10;;;;;;4842319;29;20066;-82
2021/08/05 05:05:12;;;;;;;6.10;4.13;;;15.90;87.10;;;;;;4840873;29;20058;-82
2021/08/05 05:07:41;;;;;;;6.88;4.68;;;15.90;86.80;;;;;;4824472;29;20145;-83
2021/08/05 05:10:08;;;;;;;6.15;4.22;;;15.90;86.80;;;;;;4824267;29;20137;-82
2021/08/05 05:12:34;;;;;;;6.82;4.60;;;15.90;87.10;;;;;;4826203;29;20512;-82
2021/08/05 05:15:00;;;;;;;6.22;4.63;;;15.90;86.90;;;;;;4824346;29;20456;-82
2021/08/05 05:17:26;;;;;;;7.28;4.68;;;15.90;87.00;;;;;;4823694;29;20089;-82
2021/08/05 05:19:52;;;;;;;7.25;5.05;;;15.90;86.70;;;;;;4824363;29;20065;-82
2021/08/05 05:22:18;;;;;;;6.80;4.97;;;15.90;87.10;;;;;;4823968;29;20085;-82
2021/08/05 05:24:43;;;;;;;7.40;4.97;;;16.00;87.30;;;;;;4824753;29;20111;-82
2021/08/05 05:27:09;;;;;;;7.57;5.07;;;16.00;87.20;;;;;;4828811;29;20073;-82
2021/08/05 05:29:36;;;;;;;7.53;4.88;;;15.90;87.40;;;;;;4841774;29;20491;-82
2021/08/05 05:32:03;;;;;;;6.55;4.57;;;16.00;87.50;;;;;;4842144;29;20132;-82
2021/08/05 05:34:29;;;;;;;8.55;4.75;;;16.00;87.30;;;;;;4842062;29;20133;-82
2021/08/05 05:36:55;;;;;;;8.32;5.30;;;16.00;87.30;;;;;;4841152;29;20148;-82
2021/08/05 05:39:21;;;;;;;6.20;4.63;;;16.00;87.50;;;;;;4842011;29;20053;-82
2021/08/05 05:41:46;;;;;;;6.57;4.55;;;16.00;87.40;;;;;;4842573;29;20061;-83
2021/08/05 05:44:12;;;;;;;6.65;4.93;;;16.00;87.20;;;;;;4841300;29;20057;-82
2021/08/05 05:46:38;;;;;;;7.00;4.93;;;16.00;87.20;;;;;;4842430;29;20427;-83
2021/08/05 05:49:04;;;;;;;7.50;4.72;;;16.00;87.10;;;;;;4824811;29;20406;-83
2021/08/05 05:51:29;;;;;;;7.50;5.07;;;16.00;87.10;;;;;;4827218;29;20069;-82
2021/08/05 05:53:55;;;;;;;6.68;5.00;;;16.10;86.70;;;;;;4842612;29;20061;-83
2021/08/05 05:56:21;;;;;;;6.90;4.60;;;16.10;86.70;;;;;;4828001;29;20050;-82
2021/08/05 05:58:47;;;;;;;7.93;4.97;;;16.10;86.20;;;;;;4831462;29;20136;-82
2021/08/05 06:01:12;;;;;;;8.13;4.95;;;16.10;86.10;;;;;;4842194;29;20175;-82
2021/08/05 06:03:38;;;;;;;6.50;4.70;;;16.10;86.40;;;;;;4846930;29;20111;-81
2021/08/05 06:06:04;;;;;;;6.68;5.07;;;16.10;86.70;;;;;;4829649;29;20050;-81
2021/08/05 06:08:30;;;;;;;7.22;5.07;;;16.10;87.20;;;;;;4829368;29;20534;-82
2021/08/05 06:10:56;;;;;;;7.10;4.90;;;16.10;86.10;;;;;;4829911;29;20070;-81
2021/08/05 06:13:21;;;;;;;7.15;5.18;;;16.10;86.00;;;;;;4823605;29;20053;-81
2021/08/05 06:15:47;;;;;;;7.00;4.80;;;16.10;86.40;;;;;;4834655;29;20054;-82
2021/08/05 06:18:13;;;;;;;7.28;5.30;;;16.20;86.70;;;;;;4837542;29;20054;-81
2021/08/05 06:20:39;;;;;;;7.53;5.20;;;16.20;86.90;;;;;;4823042;29;20054;-81
2021/08/05 06:23:08;;;;;;;7.45;5.28;;;16.20;86.40;;;;;;4823548;29;20055;-81
2021/08/05 06:25:35;;;;;;;7.85;5.60;;;16.20;86.40;;;;;;4823745;29;20112;-81
2021/08/05 06:28:01;;;;;;;8.50;6.40;;;16.30;86.30;;;;;;4823300;29;20051;-86
2021/08/05 06:30:26;;;;;;;6.85;5.15;;;16.30;87.00;;;;;;4824839;29;20113;-85
2021/08/05 06:32:52;;;;;;;7.70;5.63;;;16.40;86.90;;;;;;4825039;29;20102;-87
2021/08/05 06:35:18;;;;;;;6.97;5.28;;;16.40;86.70;;;;;;4842939;29;20057;-88
2021/08/05 06:37:44;;;;;;;6.68;5.20;;;16.50;86.70;;;;;;4836623;29;20519;-88
2021/08/05 06:40:10;;;;;;;8.10;5.45;;;16.60;86.70;;;;;;4824787;29;20050;-87
2021/08/05 06:42:36;;;;;;;8.85;6.28;;;16.60;86.70;;;;;;4824446;29;20158;-87
2021/08/05 06:45:08;;;;;;;6.80;5.18;;;16.80;86.70;;;;;;4833802;29;20050;-88
2021/08/05 06:47:34;;;;;;;8.48;6.53;;;16.80;86.80;;;;;;4845170;29;20061;-87
2021/08/05 06:50:01;;;;;;;7.78;5.85;;;16.90;87.30;;;;;;4845493;29;20045;-88
2021/08/05 06:52:26;;;;;;;7.43;5.30;;;17.00;87.40;;;;;;4828800;29;20093;-88
2021/08/05 06:54:52;;;;;;;6.78;5.35;;;17.10;87.00;;;;;;4844344;29;20081;-89
2021/08/05 06:57:17;;;;;;;7.57;5.45;;;17.10;86.60;;;;;;4840587;29;20060;-84
2021/08/05 06:59:43;;;;;;;7.32;5.65;;;17.20;86.90;;;;;;4826747;29;20051;-85
2021/08/05 07:02:09;;;;;;;6.75;4.78;;;17.30;87.10;;;;;;4826932;29;20060;-85
2021/08/05 07:04:35;;;;;;;6.30;4.78;;;17.40;86.70;;;;;;4831501;29;20049;-85
2021/08/05 07:07:01;;;;;;;7.95;5.13;;;17.50;86.50;;;;;;4844833;29;20045;-85
2021/08/05 07:09:26;;;;;;;7.10;4.80;;;17.60;86.80;;;;;;4834862;29;20058;-84
2021/08/05 07:11:52;;;;;;;8.18;5.13;;;17.70;87.10;;;;;;4837227;29;20049;-83
2021/08/05 07:14:18;;;;;;;7.47;5.22;;;17.80;87.50;;;;;;4843774;29;20110;-83
2021/08/05 07:16:43;;;;;;;8.10;5.10;;;18.00;87.90;;;;;;4843301;29;20507;-84
2021/08/05 07:19:09;;;;;;;7.72;4.63;;;18.10;87.80;;;;;;4843312;29;20042;-83
2021/08/05 07:21:35;;;;;;;7.20;4.70;;;18.20;87.60;;;;;;4844518;29;20077;-83
2021/08/05 07:24:01;;;;;;;7.90;4.65;;;18.30;87.20;;;;;;4841830;29;20049;-83
2021/08/05 07:26:26;;;;;;;6.43;4.32;;;18.40;86.90;;;;;;4844111;29;20484;-83
2021/08/05 07:28:52;;;;;;;12.35;4.50;;;18.50;86.90;;;;;;4841805;29;20451;-85
2021/08/05 07:31:18;;;;;;;7.28;4.72;;;18.60;86.60;;;;;;4834669;29;20507;-84
2021/08/05 07:33:44;;;;;;;8.15;4.50;;;18.60;86.40;;;;;;4832181;29;20142;-86
2021/08/05 07:36:10;;;;;;;6.25;3.90;;;18.70;86.00;;;;;;4843962;29;20143;-82
2021/08/05 07:38:35;;;;;;;8.20;3.97;;;18.80;86.00;;;;;;4833024;29;20062;-83
2021/08/05 07:41:01;;;;;;;6.20;3.80;;;18.80;86.00;;;;;;4825215;29;20061;-85
2021/08/05 07:43:27;;;;;;;6.70;4.30;;;19.00;85.90;;;;;;4826791;29;20058;-87
2021/08/05 07:45:53;;;;;;;6.47;3.97;;;19.00;85.80;;;;;;4826051;29;20419;-83
2021/08/05 07:48:19;;;;;;;6.65;4.13;;;19.20;85.50;;;;;;4826305;29;20054;-85
2021/08/05 07:50:45;;;;;;;6.53;3.83;;;19.20;85.40;;;;;;4838103;29;20049;-84
2021/08/05 07:53:10;;;;;;;5.65;3.35;;;19.30;85.20;;;;;;4844371;29;20061;-83
2021/08/05 07:55:36;;;;;;;4.65;3.10;;;19.40;84.90;;;;;;4844009;29;20050;-84
2021/08/05 07:58:02;;;;;;;5.25;3.13;;;19.50;84.60;;;;;;4841861;29;20487;-86
2021/08/05 08:00:28;;;;;;;6.63;3.10;;;19.60;84.50;;;;;;4844061;29;20053;-87
2021/08/05 08:02:53;;;;;;;5.60;3.30;;;19.60;84.50;;;;;;4831925;29;20673;-88
2021/08/05 08:05:20;;;;;;;6.85;3.25;;;19.70;84.30;;;;;;4836080;29;20408;-86
2021/08/05 08:07:45;;;;;;;4.65;2.83;;;19.80;84.00;;;;;;4829089;29;20058;-86
2021/08/05 08:10:12;;;;;;;5.30;3.05;;;19.90;83.70;;;;;;4839175;29;20054;-84
2021/08/05 08:12:38;;;;;;;5.03;3.25;;;20.00;83.50;;;;;;4828102;29;20134;-83
2021/08/05 08:15:05;;;;;;;4.88;2.53;;;20.10;83.40;;;;;;4830370;29;20046;-84
2021/08/05 08:17:30;;;;;;;4.40;2.60;;;20.10;83.30;;;;;;4834476;29;20058;-82
2021/08/05 08:19:56;;;;;;;10.00;2.90;;;20.20;83.20;;;;;;4824714;29;20404;-82
2021/08/05 08:22:22;;;;;;;6.55;3.05;;;20.30;83.00;;;;;;4827726;29;20480;-83
2021/08/05 08:24:47;;;;;;;5.88;2.70;;;20.40;82.30;;;;;;4842792;29;20452;-85
2021/08/05 08:27:13;;;;;;;4.75;2.63;;;20.50;82.60;;;;;;4841624;29;20056;-84
2021/08/05 08:29:39;;;;;;;4.10;2.30;;;20.60;82.90;;;;;;4833605;29;20180;-83
2021/08/05 08:32:04;;;;;;;5.40;2.28;;;20.60;82.80;;;;;;4826672;29;20054;-82
2021/08/05 08:34:30;;;;;;;4.70;2.38;;;20.70;82.30;;;;;;4825781;29;20046;-81
2021/08/05 08:36:56;;;;;;;4.05;2.10;;;20.80;82.40;;;;;;4827730;29;20062;-89
2021/08/05 08:39:27;;;;;;;5.38;2.40;;;20.90;82.40;;;;;;4836335;29;20562;-87
2021/08/05 08:41:53;;;;;;;4.72;2.30;;;21.00;82.10;;;;;;4828508;29;20126;-89
2021/08/05 08:44:18;;;;;;;3.80;2.40;;;21.10;82.10;;;;;;4824911;29;20189;-89
2021/08/05 08:46:47;;;;;;;3.95;2.08;;;21.20;82.10;;;;;;4824613;29;20102;-88
2021/08/05 08:49:13;;;;;;;4.18;1.98;;;21.30;81.30;;;;;;4825199;29;20495;-88
2021/08/05 08:51:39;;;;;;;4.88;2.00;;;21.30;81.80;;;;;;4825705;29;20054;-88
2021/08/05 08:54:07;;;;;;;4.20;2.22;;;21.40;81.50;;;;;;4824734;29;20499;-88
2021/08/05 08:56:36;;;;;;;4.07;2.08;;;21.60;81.70;;;;;;4825340;29;20062;-88
2021/08/05 08:59:01;;;;;;;3.63;1.92;;;21.60;81.90;;;;;;4825580;29;20054;-89
2021/08/05 09:01:30;;;;;;;4.68;2.05;;;21.70;82.00;;;;;;4825260;29;20076;-88
2021/08/05 09:03:55;;;;;;;3.75;2.00;;;21.80;80.00;;;;;;4826177;29;20050;-87
2021/08/05 09:06:24;;;;;;;3.80;1.90;;;21.90;80.70;;;;;;4826484;29;20054;-88
2021/08/05 09:08:49;;;;;;;3.13;1.75;;;22.00;80.50;;;;;;4824761;29;20062;-89
2021/08/05 09:11:16;;;;;;;4.10;2.08;;;22.10;77.70;;;;;;4826099;29;20556;-89
2021/08/05 09:13:42;;;;;;;3.50;1.65;;;22.10;77.40;;;;;;4826045;29;20057;-90
2021/08/05 09:16:23;;;;;;;4.90;1.90;;;22.20;78.70;;;;;;4825445;29;20050;-88
2021/08/05 09:18:49;;;;;;;3.45;1.58;;;22.30;78.50;;;;;;4826101;29;20050;-89
2021/08/05 09:21:23;;;;;;;3.67;1.48;;;22.30;79.00;;;;;;4826349;29;20061;-89
2021/08/05 09:24:09;;;;;;;3.00;1.60;;;22.40;76.90;;;;;;4825265;29;20057;-89
2021/08/05 09:26:47;;;;;;;3.63;1.65;;;22.50;77.60;;;;;;4826068;29;20054;-89
2021/08/05 09:29:17;;;;;;;3.50;1.90;;;22.60;78.20;;;;;;4825051;29;20051;-89
2021/08/05 09:32:05;;;;;;;4.10;1.58;;;22.70;78.70;;;;;;4825787;29;20479;-88
2021/08/05 09:34:35;;;;;;;3.83;1.70;;;22.80;78.20;;;;;;4825250;29;20142;-91
2021/08/05 09:37:12;;;;;;;2.72;1.45;;;22.80;75.80;;;;;;4824841;29;20117;-89
2021/08/05 09:39:40;;;;;;;3.15;1.80;;;22.90;77.30;;;;;;4825654;29;20504;-88
2021/08/05 09:42:15;;;;;;;5.63;1.50;;;23.00;77.10;;;;;;4825541;29;20054;-89
2021/08/05 09:44:47;;;;;;;2.53;1.40;;;23.00;77.40;;;;;;4824971;29;20058;-89
2021/08/05 09:47:15;;;;;;;3.20;1.70;;;23.10;78.50;;;;;;4825822;29;20058;-91
2021/08/05 09:50:01;;;;;;;3.47;1.58;;;23.20;78.80;;;;;;4825220;29;20074;-90
2021/08/05 09:52:32;;;;;;;2.63;1.50;;;23.30;78.70;;;;;;4825646;29;20083;-90
2021/08/05 09:55:04;;;;;;;2.78;1.52;;;23.30;76.90;;;;;;4825629;29;20062;-90
2021/08/05 09:57:32;;;;;;;3.57;1.80;;;23.40;78.00;;;;;;4824882;29;20126;-90
2021/08/05 10:00:04;;;;;;;3.70;1.85;;;23.50;77.60;;;;;;4825523;29;20054;-90
2021/08/05 10:02:42;;;;;;;3.28;1.85;;;23.60;76.60;;;;;;4825498;29;20055;-90
2021/08/05 10:05:15;;;;;;;4.68;2.10;;;23.60;75.30;;;;;;4824880;29;20051;-90
2021/08/05 10:07:46;;;;;;;3.70;1.80;;;23.70;74.10;;;;;;4825388;29;20062;-90
2021/08/05 10:10:13;;;;;;;5.50;1.88;;;23.80;75.00;;;;;;4825403;29;20055;-90
2021/08/05 10:12:40;;;;;;;5.88;1.63;;;23.80;74.40;;;;;;4825043;29;20054;-90
2021/08/05 10:15:13;;;;;;;2.67;1.50;;;23.90;75.80;;;;;;4825477;29;20073;-92
2021/08/05 10:17:40;;;;;;;3.17;1.60;;;24.00;77.10;;;;;;4825749;29;20563;-90
2021/08/05 10:20:12;;;;;;;3.13;1.70;;;24.10;77.20;;;;;;4825771;29;20129;-89
2021/08/05 10:22:41;;;;;;;3.20;1.80;;;24.20;75.90;;;;;;4829047;29;20477;-89
2021/08/05 10:25:13;;;;;;;3.95;2.00;;;24.20;76.50;;;;;;4828134;29;20076;-89
2021/08/05 10:27:39;;;;;;;3.38;1.75;;;24.20;73.60;;;;;;4831033;29;20078;-89
2021/08/05 10:30:10;;;;;;;3.92;1.80;;;24.20;76.00;;;;;;4833157;29;20081;-90
2021/08/05 10:32:36;;;;;;;3.70;1.90;;;24.20;77.10;;;;;;4832201;29;20062;-90
2021/08/05 10:35:02;;;;;;;2.97;1.73;;;24.30;77.10;;;;;;4834826;29;20051;-90
2021/08/05 10:37:28;;;;;;;3.72;1.83;;;24.40;77.60;;;;;;4831780;29;20133;-92
2021/08/05 10:39:56;;;;;;;3.70;1.80;;;24.30;77.20;;;;;;4828872;29;20131;-90
2021/08/05 10:42:22;;;;;;;3.38;1.70;;;24.40;77.10;;;;;;4828295;29;20066;-91
2021/08/05 10:44:50;;;;;;;2.90;1.60;;;24.50;77.70;;;;;;4828511;29;20101;-91
2021/08/05 10:47:27;;;;;;;3.47;1.80;;;24.50;78.00;;;;;;4827514;29;20065;-89
2021/08/05 10:49:55;;;;;;;3.67;1.50;;;24.50;78.10;;;;;;4828426;29;20092;-91
2021/08/05 10:52:39;;;;;;;2.53;1.48;;;24.50;78.50;;;;;;4828449;29;20058;-89
2021/08/05 10:55:07;;;;;;;2.88;1.58;;;24.60;78.60;;;;;;4827504;29;20062;-91
2021/08/05 10:57:33;;;;;;;2.95;1.67;;;24.70;78.70;;;;;;4827579;29;20054;-89
2021/08/05 11:00:14;;;;;;;3.22;1.98;;;24.70;78.40;;;;;;4827328;29;20457;-90
2021/08/05 11:02:43;;;;;;;3.17;2.10;;;24.70;76.40;;;;;;4827658;29;20517;-88
2021/08/05 11:05:11;;;;;;;3.72;2.15;;;24.70;73.40;;;;;;4827719;29;20055;-90
2021/08/05 11:07:36;;;;;;;3.83;1.90;;;24.70;73.20;;;;;;4827031;29;20133;-90
2021/08/05 11:10:15;;;;;;;3.65;1.98;;;24.70;74.50;;;;;;4827818;29;20062;-91
2021/08/05 11:12:48;;;;;;;2.13;1.52;;;24.70;76.30;;;;;;4827713;29;20495;-90
2021/08/05 11:15:20;;;;;;;5.63;2.15;;;24.80;77.30;;;;;;4827116;29;20074;-90
2021/08/05 11:18:10;;;;;;;3.40;1.60;;;24.90;74.70;;;;;;4827912;29;20070;-90
2021/08/05 11:21:07;;;;;;;3.38;1.70;;;24.90;76.00;;;;;;4827367;29;20058;-89
2021/08/05 11:23:35;;;;;;;3.25;1.70;;;24.90;76.90;;;;;;4827451;29;20054;-90
2021/08/05 11:26:09;;;;;;;5.35;2.00;;;25.00;76.90;;;;;;4827672;29;20060;-90
2021/08/05 11:28:41;;;;;;;4.10;2.03;;;25.00;74.80;;;;;;4826880;29;20054;-89
2021/08/05 11:31:09;;;;;;;5.40;1.77;;;25.10;75.40;;;;;;4826928;29;20133;-89
2021/08/05 11:33:40;;;;;;;3.90;1.83;;;25.10;76.20;;;;;;4827395;29;20388;-90
2021/08/05 11:39:05;;;;;;;2.88;1.52;;;25.30;74.70;;;;;;4827494;29;20074;-89
2021/08/05 11:41:58;;;;;;;2.70;1.75;;;25.30;75.70;;;;;;4827101;29;20054;-90
2021/08/05 11:44:27;;;;;;;;;;;25.30;75.90;;;;;;4827411;29;20050;-89
2021/08/05 11:47:04;;;;;;;3.95;2.03;;;25.30;74.10;;;;;;4827404;29;20315;-90
2021/08/05 11:49:40;;;;;;;4.57;1.70;;;25.30;76.10;;;;;;4826535;29;20100;-90
2021/08/05 11:52:10;;;;;;;4.10;1.80;;;25.40;76.60;;;;;;4827356;29;20125;-90
2021/08/05 11:54:37;;;;;;;3.00;1.52;;;25.40;73.50;;;;;;4827116;29;20054;-89
2021/08/05 11:57:05;;;;;;;3.30;1.90;;;25.50;75.70;;;;;;4826303;29;20091;-89
2021/08/05 11:59:38;;;;;;;4.03;2.05;;;25.50;75.50;;;;;;4826966;29;20571;-90
2021/08/05 12:02:05;;;;;;;3.60;1.80;;;25.50;72.40;;;;;;4826915;29;20050;-90
2021/08/05 12:04:30;;;;;;;4.43;1.83;;;25.50;74.80;;;;;;4826625;29;20083;-89
2021/08/05 12:07:14;;;;;;;3.40;1.75;;;25.60;75.90;;;;;;4827180;29;20137;-89
2021/08/05 12:09:40;;;;;;;5.25;1.95;;;25.60;76.30;;;;;;4826864;29;20515;-90
2021/08/05 12:12:07;;;;;;;3.88;1.88;;;25.70;76.60;;;;;;4826210;29;20496;-89
2021/08/05 12:14:33;;;;;;;3.38;1.70;;;25.80;76.50;;;;;;4826808;29;20162;-89
2021/08/05 12:16:59;;;;;;;3.10;1.80;;;25.80;76.60;;;;;;4826956;29;20105;-90
2021/08/05 12:19:25;;;;;;;3.70;1.90;;;25.80;76.50;;;;;;4826150;29;20500;-89
2021/08/05 12:21:51;;;;;;;4.13;2.17;;;25.90;76.80;;;;;;4826847;29;20125;-90
2021/08/05 12:24:17;;;;;;;3.75;1.70;;;26.00;72.90;;;;;;4826807;29;20105;-91
2021/08/05 12:26:42;;;;;;;2.47;1.52;;;26.00;74.60;;;;;;4826298;29;20058;-90
2021/08/05 12:29:11;;;;;;;5.90;2.40;;;26.10;75.90;;;;;;4826623;29;20111;-89
2021/08/05 12:31:37;;;;;;;7.10;2.38;;;26.10;71.60;;;;;;4826264;29;20062;-89
2021/08/05 12:34:03;;;;;;;4.32;2.00;;;26.10;70.40;;;;;;4826726;29;20054;-89
2021/08/05 12:36:28;;;;;;;3.60;1.80;;;26.10;73.20;;;;;;4826525;29;20085;-90
2021/08/05 12:38:59;;;;;;;3.35;1.90;;;26.10;73.20;;;;;;4826180;29;20054;-90
2021/08/05 12:41:32;;;;;;;3.78;1.95;;;26.20;74.20;;;;;;4826394;29;20050;-90
2021/08/05 12:44:07;;;;;;;6.32;2.47;;;26.20;72.60;;;;;;4826034;29;20054;-89
2021/08/05 12:46:34;;;;;;;3.80;2.15;;;26.20;66.90;;;;;;4825982;29;20081;-89
2021/08/05 12:49:00;;;;;;;3.58;1.85;;;26.10;68.90;;;;;;4826629;29;20084;-90
2021/08/05 12:51:28;;;;;;;4.22;1.92;;;26.10;71.10;;;;;;4826394;29;20078;-91
2021/08/05 12:53:55;;;;;;;3.55;1.88;;;26.10;73.00;;;;;;4825791;29;20145;-90
2021/08/05 12:56:47;;;;;;;2.70;1.67;;;26.20;74.10;;;;;;4826307;29;20050;-89